Flight Track Log - Related Links

Times and Time Zones

All times are in EDT time to prevent confusion due to time zone crossing. See the CTL16 flight status page for this flight to view local times or setup timezone preferences in your user account.

Time Position Orientation Groundspeed Altitude Reporting Facility
EDT Latitude Longitude Course Direction KTS MPH feet Rate Location/Type
Fri 08:40:40 PM 39.4167 -84.4833 42° Northeast 144 166 2,500  Level Cincinnati TRACON
Fri 08:41:47 PM 39.4392 -84.4567 42° Northeast 134 154 3,500 867 Climbing Indianapolis Center
Fri 08:42:10 PM 39.4506 -84.4436 42° Northeast 138 159 3,800 984 Climbing Indianapolis Center
Fri 08:42:48 PM 39.4653 -84.4194 52° Northeast 144 166 4,500 1,065 Climbing Indianapolis Center
Fri 08:43:12 PM 39.4764 -84.4058 43° Northeast 139 160 4,900 896 Climbing Indianapolis Center
Fri 08:43:55 PM 39.4936 -84.3800 49° Northeast 129 148 5,500 885 Climbing Indianapolis Center
Fri 08:44:13 PM 39.5003 -84.3706 48° Northeast 134 154 5,800 1,000 Climbing Indianapolis Center
Fri 08:45:01 PM 39.5175 -84.3428 51° Northeast 125 144 6,600 699 Climbing Indianapolis Center
Fri 08:45:56 PM 39.5386 -84.3158 45° Northeast 117 135 7,000 320 Climbing Indianapolis Center
Fri 08:46:16 PM 39.5450 -84.3039 55° Northeast 121 139 7,000  Level Indianapolis Center
Fri 08:46:56 PM 39.5672 -84.2736 46° Northeast 160 184 7,000  Level Indianapolis Center
Fri 08:47:17 PM 39.5767 -84.2589 50° Northeast 159 183 7,000  Level Indianapolis Center
Fri 08:47:57 PM 39.6003 -84.2264 47° Northeast 171 197 7,000  Level Indianapolis Center
Fri 08:48:19 PM 39.6086 -84.2156 45° Northeast 164 189 7,000  Level Indianapolis Center
Fri 08:48:52 PM 39.6283 -84.1894 46° Northeast 168 193 7,000 -98 Level Indianapolis Center
Fri 08:49:20 PM 39.6411 -84.1694 50° Northeast 168 193 6,900 100 Descending Indianapolis Center
Fri 08:49:52 PM 39.6617 -84.1397 48° Northeast 169 194 7,100  Climbing Indianapolis Center
Fri 08:50:22 PM 39.6733 -84.1258 42° Northeast 168 193 6,900 -98 Descending Indianapolis Center
Fri 08:50:53 PM 39.6922 -84.0947 52° Northeast 168 193 7,000 98 Climbing Indianapolis Center
Fri 08:51:23 PM 39.7042 -84.0800 43° Northeast 167 192 7,000  Level Indianapolis Center
Fri 08:51:54 PM 39.7250 -84.0503 48° Northeast 171 197 7,000  Level Indianapolis Center
Fri 08:52:24 PM 39.7369 -84.0342 46° Northeast 168 193 7,000 -100 Level Indianapolis Center
Fri 08:52:54 PM 39.7578 -84.0056 47° Northeast 166 191 6,900 -97 Descending Indianapolis Center
Fri 08:53:26 PM 39.7694 -83.9897 46° Northeast 169 194 6,900 98 Level Indianapolis Center
Fri 08:53:55 PM 39.7886 -83.9608 49° Northeast 166 191 7,000 98 Climbing Indianapolis Center
Fri 08:54:27 PM 39.8067 -83.9375 45° Northeast 168 193 7,000  Level Indianapolis Center
Fri 08:54:56 PM 39.8214 -83.9161 48° Northeast 167 192 7,000  Level Indianapolis Center
Fri 08:55:28 PM 39.8383 -83.8925 47° Northeast 167 192 7,000  Level Indianapolis Center
Fri 08:55:57 PM 39.8519 -83.8711 50° Northeast 167 192 7,000  Level Indianapolis Center
Fri 08:56:30 PM 39.8697 -83.8469 46° Northeast 167 192 7,000 200 Level Indianapolis Center
Fri 08:56:57 PM 39.8867 -83.8292 39° Northeast 168 193 7,200  Climbing Indianapolis Center
Fri 08:57:31 PM 39.9044 -83.8058 45° Northeast 167 192 7,000 -197 Descending Indianapolis Center
Fri 08:57:58 PM 39.9211 -83.7875 40° Northeast 169 194 7,000  Level Indianapolis Center
Fri 08:58:32 PM 39.9403 -83.7644 43° Northeast 169 194 7,000  Level Indianapolis Center
Fri 08:58:59 PM 39.9558 -83.7456 43° Northeast 169 194 7,000  Level Indianapolis Center
Fri 08:59:34 PM 39.9758 -83.7228 41° Northeast 169 194 7,000  Level Indianapolis Center
Fri 08:59:59 PM 39.9903 -83.7036 45° Northeast 169 194 7,000  Level Indianapolis Center
Fri 09:00:35 PM 40.0097 -83.6783 45° Northeast 170 196 7,000  Level Indianapolis Center
Fri 09:01:00 PM 40.0231 -83.6561 52° Northeast 170 196 7,000  Level Indianapolis Center
Fri 09:01:36 PM 40.0422 -83.6328 43° Northeast 170 196 7,000  Level Indianapolis Center
Fri 09:02:01 PM 40.0578 -83.6139 43° Northeast 170 196 7,000  Level Indianapolis Center
Fri 09:02:38 PM 40.0783 -83.5906 41° Northeast 170 196 7,000  Level Indianapolis Center
Fri 09:03:01 PM 40.0942 -83.5722 42° Northeast 172 198 7,000  Level Indianapolis Center
Fri 09:03:39 PM 40.1142 -83.5483 42° Northeast 171 197 7,000  Level Indianapolis Center
Fri 09:04:02 PM 40.1286 -83.5300 44° Northeast 171 197 7,000  Level Indianapolis Center
Fri 09:04:40 PM 40.1489 -83.5050 43° Northeast 170 196 7,000  Level Indianapolis Center
Fri 09:05:03 PM 40.1633 -83.4853 46° Northeast 170 196 7,000  Level Indianapolis Center
Fri 09:05:41 PM 40.1828 -83.4611 44° Northeast 171 197 7,000  Level Indianapolis Center
Fri 09:06:03 PM 40.1978 -83.4431 43° Northeast 170 196 7,000  Level Indianapolis Center
Fri 09:06:43 PM 40.2175 -83.4186 43° Northeast 169 194 7,000  Level Indianapolis Center
Fri 09:07:04 PM 40.2344 -83.4011 38° Northeast 172 198 7,000  Level Indianapolis Center
Fri 09:07:44 PM 40.2525 -83.3750 48° Northeast 171 197 7,000  Level Indianapolis Center
Fri 09:08:05 PM 40.2667 -83.3586 41° Northeast 167 192 7,000  Level Indianapolis Center
Fri 09:08:45 PM 40.2881 -83.3339 41° Northeast 169 194 7,000  Level Indianapolis Center
Fri 09:09:47 PM 40.3233 -83.2919 42° Northeast 169 194 7,000  Level Indianapolis Center
Fri 09:10:48 PM 40.3589 -83.2475 44° Northeast 173 199 7,000  Level Indianapolis Center
Fri 09:11:49 PM 40.3933 -83.2050 43° Northeast 171 197 7,000  Level Indianapolis Center
Fri 09:12:50 PM 40.4303 -83.1644 40° Northeast 171 197 7,000  Level Indianapolis Center
Fri 09:13:52 PM 40.4653 -83.1233 42° Northeast 169 194 7,000  Level Indianapolis Center
Fri 09:14:53 PM 40.5069 -83.0764 41° Northeast 167 192 7,000  Level Indianapolis Center
Fri 09:15:54 PM 40.5394 -83.0422 39° Northeast 167 192 7,000 -98 Level Indianapolis Center
Fri 09:16:55 PM 40.5683 -82.9953 51° Northeast 164 189 6,800 -341 Descending Indianapolis Center
Fri 09:17:57 PM 40.5997 -82.9408 53° Northeast 181 208 6,300 -537 Descending Indianapolis Center
Fri 09:18:58 PM 40.6322 -82.8897 50° Northeast 182 209 5,700 -639 Descending Indianapolis Center
Fri 09:19:59 PM 40.6678 -82.8264 53° Northeast 182 209 5,000 -341 Descending Indianapolis Center
Fri 09:21:01 PM 40.6961 -82.7725 55° Northeast 177 204 5,000 49 Level Indianapolis Center
Fri 09:22:02 PM 40.7233 -82.7239 54° Northeast 168 193 5,100  Climbing Indianapolis Center
Fri 09:22:40 PM 40.7397 -82.6933 55° Northeast 165 190 5,000 -81 Descending Cleveland Center
Fri 09:23:16 PM 40.7569 -82.6636 53° Northeast 169 194 5,000  Level Cleveland Center
Fri 09:24:11 PM 40.7808 -82.6150 57° Northeast 172 198 5,000  Level Cleveland Center
Fri 09:25:18 PM 40.8108 -82.5639 52° Northeast 171 197 5,000 47 Level Cleveland Center
Fri 09:26:19 PM 40.8389 -82.5097 56° Northeast 172 198 5,100  Climbing Cleveland Center
Fri 09:27:19 PM 40.8647 -82.4528 59° Northeast 169 194 5,000  Descending Cleveland Center
Fri 09:28:20 PM 40.8864 -82.4014 61° Northeast 167 192 5,100  Climbing Cleveland Center
Fri 09:29:15 PM 40.9061 -82.3497 63° Northeast 166 191 5,000 -43 Descending Cleveland Center
Fri 09:30:40 PM 40.9364 -82.2736 62° Northeast 170 196 5,000 90 Level Cleveland Center
Fri 09:31:28 PM 40.9539 -82.2272 63° Northeast 169 194 5,200 58 Climbing Cleveland Center
Fri 09:32:23 PM 40.9731 -82.1808 61° Northeast 169 194 5,100 -55 Descending Cleveland Center
Fri 09:33:17 PM 40.9947 -82.1292 61° Northeast 167 192 5,100 -52 Level Cleveland Center
Fri 09:34:18 PM 41.0244 -82.0803 51° Northeast 173 199 5,000 -50 Descending Cleveland Center
Fri 09:35:18 PM 41.0606 -82.0425 38° Northeast 168 193 5,000  Level Cleveland Center
Fri 09:36:19 PM 41.0944 -81.9967 46° Northeast 173 199 5,000 -141 Level Cleveland Center
Fri 09:37:26 PM 41.1347 -81.9478 42° Northeast 175 201 4,700 -347 Descending Cleveland Center
Fri 09:38:20 PM 41.1706 -81.9072 40° Northeast 184 212 4,300 -417 Descending Cleveland Center
Fri 09:39:21 PM 41.2067 -81.8608 44° Northeast 185 213 3,900 -393 Descending Cleveland Center
Fri 09:40:22 PM 41.2486 -81.8231 34° Northeast 187 215 3,500 -425 Descending Cleveland Center
Fri 09:41:28 PM 41.3072 -81.7939 20° North 194 223 3,000 -236 Descending Cleveland Center
Fri 09:42:29 PM 41.3514 -81.7725 20° North 165 190 3,000 -49 Level Cleveland Center
Fri 09:43:30 PM 41.3953 -81.7567 15° North 171 197 2,900 -522 Descending Cleveland Center
Fri 09:44:24 PM 41.4414 -81.7381 17° North 186 214 2,000 -730 Descending Cleveland Center
Fri 09:45:25 PM 41.4853 -81.7306 North 149 171 1,500 -545 Descending Cleveland Center
Fri 09:46:25 PM 41.5042 -81.7144 33° Northeast 83 96 900 -600 Descending Cleveland Center

Login

Don't have an account? Register now (free) for customized features, flight alerts, and more!